Flight Track Log - Related Links

Times and Time Zones

All times are in EST time to prevent confusion due to time zone crossing. See the N125GH flight status page for this flight to view local times or setup timezone preferences in your user account.

Time Position Orientation Groundspeed Altitude Reporting Facility
EST Latitude Longitude Course Direction KTS MPH feet Rate Location/Type
Tue 03:27:26 PM 29.6544 -95.2892 North 161 185 900  Level Houston Center
Tue 03:28:01 PM 29.6758 -95.2889 North 213 245 2,200 3,000 Climbing Houston Center
Tue 03:28:28 PM 29.6806 -95.2547 81° East 211 243 4,000 2,613 Climbing Houston Center
Tue 03:29:03 PM 29.6592 -95.2331 139° Southeast 233 268 4,900 1,000 Climbing Houston Center
Tue 03:29:28 PM 29.6167 -95.2217 167° South 278 320 5,000 95 Climbing Houston Center
Tue 03:30:06 PM 29.5761 -95.2006 156° South 273 314 5,000 60 Level Houston Center
Tue 03:31:08 PM 29.5247 -95.1436 136° Southeast 262 302 5,100 677 Climbing Houston Center
Tue 03:32:10 PM 29.4736 -95.0869 136° Southeast 259 298 6,400 1,597 Climbing Houston Center
Tue 03:33:12 PM 29.4183 -95.0267 136° Southeast 269 310 8,400 2,177 Climbing Houston Center
Tue 03:34:14 PM 29.3486 -94.9525 137° Southeast 283 326 10,900 2,274 Climbing Houston Center
Tue 03:35:16 PM 29.2747 -94.8736 137° Southeast 356 410 13,100 2,468 Climbing Houston Center
Tue 03:36:18 PM 29.1850 -94.8097 148° Southeast 377 434 16,000 2,419 Climbing Houston Center
Tue 03:37:20 PM 29.0894 -94.7453 149° Southeast 393 452 18,100 2,256 Climbing Houston Center
Tue 03:38:23 PM 28.9911 -94.6781 149° Southeast 408 470 20,700 2,208 Climbing Houston Center
Tue 03:39:25 PM 28.8881 -94.6083 149° Southeast 421 484 22,700 1,694 Climbing Houston Center
Tue 03:40:27 PM 28.7614 -94.5247 150° Southeast 435 501 24,200 1,452 Climbing Houston Center
Tue 03:41:29 PM 28.6417 -94.4786 161° South 448 516 25,700 1,452 Climbing Houston Center
Tue 03:42:31 PM 28.5211 -94.4378 163° South 453 521 27,200 1,452 Climbing Houston Center
Tue 03:43:33 PM 28.4000 -94.3953 163° South 455 524 28,700 1,452 Climbing Houston Center
Tue 03:44:35 PM 28.2806 -94.3542 163° South 450 518 30,200 1,355 Climbing Houston Center
Tue 03:45:37 PM 28.1597 -94.3153 164° South 450 518 31,500 1,488 Climbing Houston Center
Tue 03:46:40 PM 28.0125 -94.2631 163° South 459 528 33,300 1,824 Climbing Houston Center
Tue 03:47:42 PM 27.8906 -94.2225 164° South 458 527 35,300 1,694 Climbing Houston Center
Tue 03:48:44 PM 27.7692 -94.1822 164° South 454 522 36,800 1,500 Climbing Houston Center
Tue 03:49:46 PM 27.6492 -94.1406 163° South 453 521 38,400 1,548 Climbing Houston Center
Tue 03:50:48 PM 27.5303 -94.0994 163° South 447 514 40,000 1,258 Climbing Houston Center
Tue 03:51:50 PM 27.3917 -94.0525 163° South 436 502 41,000 484 Climbing Houston Center
Tue 03:52:52 PM 27.2703 -94.0128 164° South 448 516 41,000  Level Houston Center
Tue 03:53:54 PM 27.1467 -93.9711 163° South 459 528 41,000  Level Houston Center
Tue 03:54:57 PM 27.0264 -93.9303 163° South 454 522 41,000  Level Houston Center
Tue 03:55:59 PM 26.9075 -93.8908 164° South 447 514 41,000  Level Houston Center
Tue 03:57:01 PM 26.7861 -93.8489 163° South 453 521 41,000  Level Houston Center
Tue 03:58:03 PM 26.6494 -93.8047 164° South 455 524 41,000  Level Houston Center
Tue 03:59:05 PM 26.5292 -93.7603 162° South 454 522 41,000  Level Houston Center
Tue 04:00:07 PM 26.4144 -93.7008 155° Southeast 453 521 41,000  Level Houston Center
Tue 04:01:09 PM 26.2786 -93.6186 152° Southeast 455 524 41,000  Level Houston Center
Tue 04:02:11 PM 26.1878 -93.5600 150° Southeast 458 527 41,000  Level Houston Center
Tue 04:04:00 PM 25.9843 -93.4303 150° Southeast  Level FlightAware Approximate
Tue 04:11:00 PM 25.1935 -92.9461 152° Southeast  Level FlightAware Approximate
Tue 04:12:00 PM 25.0800 -92.8782 152° Southeast  Level FlightAware Approximate
Tue 04:13:00 PM 24.9665 -92.8104 152° Southeast  Level FlightAware Approximate
Tue 04:14:00 PM 24.8529 -92.7427 152° Southeast  Level FlightAware Approximate
Tue 04:15:00 PM 24.7393 -92.6752 152° Southeast  Level FlightAware Approximate
Tue 04:16:00 PM 24.6257 -92.6078 152° Southeast  Level FlightAware Approximate
Tue 04:17:00 PM 24.5121 -92.5405 152° Southeast  Level FlightAware Approximate
Tue 04:18:00 PM 24.3934 -92.4848 157° South  Level FlightAware Approximate
Tue 04:19:00 PM 24.2742 -92.4305 157° South  Level FlightAware Approximate
Tue 04:20:00 PM 24.1551 -92.3760 157° South  Level FlightAware Approximate
Tue 04:21:00 PM 24.0359 -92.3215 157° South  Level FlightAware Approximate
Tue 04:22:00 PM 23.9168 -92.2672 157° South  Level FlightAware Approximate
Tue 04:23:00 PM 23.7976 -92.2129 157° South  Level FlightAware Approximate
Tue 04:24:00 PM 23.6785 -92.1588 157° South  Level FlightAware Approximate
Tue 04:25:00 PM 23.5593 -92.1047 157° South  Level FlightAware Approximate
Tue 04:26:00 PM 23.4400 -92.0508 157° South  Level FlightAware Approximate
Tue 04:27:00 PM 23.3208 -91.9969 157° South  Level FlightAware Approximate
Tue 04:28:00 PM 23.2015 -91.9434 158° South  Level FlightAware Approximate
Tue 04:29:00 PM 23.0816 -91.8914 158° South  Level FlightAware Approximate
Tue 04:30:00 PM 22.9617 -91.8395 158° South  Level FlightAware Approximate
Tue 04:31:00 PM 22.8417 -91.7877 158° South  Level FlightAware Approximate
Tue 04:32:00 PM 22.7218 -91.7359 158° South  Level FlightAware Approximate
Tue 04:33:00 PM 22.6018 -91.6843 158° South  Level FlightAware Approximate
Tue 04:34:00 PM 22.4818 -91.6327 158° South  Level FlightAware Approximate
Tue 04:35:00 PM 22.3619 -91.5812 158° South  Level FlightAware Approximate
Tue 04:36:00 PM 22.2423 -91.5285 158° South  Level FlightAware Approximate
Tue 04:37:00 PM 22.1228 -91.4760 158° South  Level FlightAware Approximate
Tue 04:38:00 PM 22.0033 -91.4235 158° South  Level FlightAware Approximate
Tue 04:39:00 PM 21.8837 -91.3711 158° South  Level FlightAware Approximate
Tue 04:40:00 PM 21.7641 -91.3188 158° South  Level FlightAware Approximate
Tue 04:41:00 PM 21.6445 -91.2665 158° South  Level FlightAware Approximate
Tue 04:42:00 PM 21.5248 -91.2144 158° South  Level FlightAware Approximate
Tue 04:43:00 PM 21.4052 -91.1624 158° South  Level FlightAware Approximate
Tue 04:44:00 PM 21.2853 -91.1111 161° South  Level FlightAware Approximate
Tue 04:45:00 PM 21.1635 -91.0653 158° South  Level FlightAware Approximate
Tue 04:46:00 PM 21.0434 -91.0144 158° South  Level FlightAware Approximate
Tue 04:47:00 PM 20.9234 -90.9636 158° South  Level FlightAware Approximate
Tue 04:48:00 PM 20.8033 -90.9129 158° South  Level FlightAware Approximate
Tue 04:49:00 PM 20.6833 -90.8623 159° South  Level FlightAware Approximate
Tue 04:50:00 PM 20.5631 -90.8118 159° South  Level FlightAware Approximate
Tue 04:51:00 PM 20.4430 -90.7614 159° South  Level FlightAware Approximate
Tue 04:52:00 PM 20.3228 -90.7111 159° South  Level FlightAware Approximate
Tue 04:53:00 PM 20.2027 -90.6608 159° South  Level FlightAware Approximate
Tue 04:54:00 PM 20.0825 -90.6107 159° South  Level FlightAware Approximate
Tue 04:55:00 PM 19.9623 -90.5606 159° South  Level FlightAware Approximate
Tue 04:56:00 PM 19.8421 -90.5106 159° South  Level FlightAware Approximate
Tue 04:57:00 PM 19.7167 -90.4799 169° South  Level FlightAware Approximate
Tue 04:58:00 PM 19.5898 -90.4545 169° South  Level FlightAware Approximate
Tue 04:59:00 PM 19.4630 -90.4291 169° South  Level FlightAware Approximate
Tue 05:00:00 PM 19.3361 -90.4038 169° South  Level FlightAware Approximate
Tue 05:01:00 PM 19.2093 -90.3785 169° South  Level FlightAware Approximate
Tue 05:02:00 PM 19.0824 -90.3532 169° South  Level FlightAware Approximate
Tue 05:03:00 PM 18.9556 -90.3280 169° South  Level FlightAware Approximate
Tue 05:04:00 PM 18.8287 -90.3028 169° South  Level FlightAware Approximate
Tue 05:05:00 PM 18.7019 -90.2777 169° South  Level FlightAware Approximate
Tue 05:06:00 PM 18.5750 -90.2526 169° South  Level FlightAware Approximate
Tue 05:07:00 PM 18.4481 -90.2275 169° South  Level FlightAware Approximate
Tue 05:08:00 PM 18.3213 -90.2025 169° South  Level FlightAware Approximate
Tue 05:09:00 PM 18.1944 -90.1775 169° South  Level FlightAware Approximate
Tue 05:10:00 PM 18.0675 -90.1525 169° South  Level FlightAware Approximate
Tue 05:11:00 PM 17.9406 -90.1276 169° South  Level FlightAware Approximate
Tue 05:12:00 PM 17.8137 -90.1027 169° South  Level FlightAware Approximate
Tue 05:13:00 PM 17.6892 -90.0791 156° South  Level FlightAware Approximate
Tue 05:14:00 PM 17.5715 -90.0234 156° South  Level FlightAware Approximate
Tue 05:15:00 PM 17.4539 -89.9677 156° South  Level FlightAware Approximate
Tue 05:16:00 PM 17.3362 -89.9121 156° South  Level FlightAware Approximate
Tue 05:17:00 PM 17.2185 -89.8566 156° South  Level FlightAware Approximate
Tue 05:18:00 PM 17.1008 -89.8012 156° South  Level FlightAware Approximate
Tue 05:19:00 PM 16.9831 -89.7458 156° South  Level FlightAware Approximate
Tue 05:20:00 PM 16.8653 -89.6905 156° South  Level FlightAware Approximate
Tue 05:21:00 PM 16.7481 -89.6341 155° Southeast  Level FlightAware Approximate
Tue 05:22:00 PM 16.6309 -89.5776 155° Southeast  Level FlightAware Approximate
Tue 05:23:00 PM 16.5137 -89.5212 155° Southeast  Level FlightAware Approximate
Tue 05:24:00 PM 16.3965 -89.4648 155° Southeast  Level FlightAware Approximate
Tue 05:25:00 PM 16.2793 -89.4085 155° Southeast  Level FlightAware Approximate
Tue 05:26:00 PM 16.1620 -89.3522 155° Southeast  Level FlightAware Approximate
Tue 05:27:00 PM 16.0448 -89.2961 155° Southeast  Level FlightAware Approximate
Tue 05:28:00 PM 15.9271 -89.2410 156° South  Level FlightAware Approximate
Tue 05:29:00 PM 15.8089 -89.1870 156° South  Level FlightAware Approximate
Tue 05:30:00 PM 15.6907 -89.1331 156° South  Level FlightAware Approximate
Tue 05:31:00 PM 15.5725 -89.0793 156° South  Level FlightAware Approximate
Tue 05:32:00 PM 15.4543 -89.0256 156° South  Level FlightAware Approximate
Tue 05:33:00 PM 15.3360 -88.9718 156° South  Level FlightAware Approximate
Tue 05:34:00 PM 15.2178 -88.9182 156° South  Level FlightAware Approximate
Tue 05:35:00 PM 15.0995 -88.8646 156° South  Level FlightAware Approximate
Tue 05:36:00 PM 14.9812 -88.8111 156° South  Level FlightAware Approximate
Tue 05:37:00 PM 14.8629 -88.7577 156° South  Level FlightAware Approximate
Tue 05:38:00 PM 14.7446 -88.7042 156° South  Level FlightAware Approximate
Tue 05:39:00 PM 14.6263 -88.6509 156° South  Level FlightAware Approximate
Tue 05:40:00 PM 14.5080 -88.5976 156° South  Level FlightAware Approximate
Tue 05:41:00 PM 14.3897 -88.5444 156° South  Level FlightAware Approximate
Tue 05:42:00 PM 14.2713 -88.4912 156° South  Level FlightAware Approximate
Tue 05:43:00 PM 14.1531 -88.4378 156° South  Level FlightAware Approximate
Tue 05:44:00 PM 14.0349 -88.3843 156° South  Level FlightAware Approximate
Tue 05:45:00 PM 13.9167 -88.3308 156° South  Level FlightAware Approximate
Tue 05:46:00 PM 13.7985 -88.2773 156° South  Level FlightAware Approximate
Tue 05:47:00 PM 13.6803 -88.2239 156° South  Level FlightAware Approximate
Tue 05:48:00 PM 13.5621 -88.1706 156° South  Level FlightAware Approximate
Tue 05:49:00 PM 13.4439 -88.1173 156° South  Level FlightAware Approximate
Tue 05:50:00 PM 13.3257 -88.0641 156° South  Level FlightAware Approximate
Tue 05:51:00 PM 13.2074 -88.0109 156° South  Level FlightAware Approximate
Tue 05:52:00 PM 13.0891 -87.9578 156° South  Level FlightAware Approximate
Tue 05:53:00 PM 12.9709 -87.9047 156° South  Level FlightAware Approximate
Tue 05:54:00 PM 12.8526 -87.8517 156° South  Level FlightAware Approximate
Tue 05:55:00 PM 12.7343 -87.7987 156° South  Level FlightAware Approximate
Tue 05:56:00 PM 12.6159 -87.7461 157° South  Level FlightAware Approximate
Tue 05:57:00 PM 12.4973 -87.6938 157° South  Level FlightAware Approximate
Tue 05:58:00 PM 12.3788 -87.6415 157° South  Level FlightAware Approximate
Tue 05:59:00 PM 12.2602 -87.5892 157° South  Level FlightAware Approximate
Tue 06:00:00 PM 12.1417 -87.5370 157° South  Level FlightAware Approximate
Tue 06:01:00 PM 12.0231 -87.4848 157° South  Level FlightAware Approximate
Tue 06:02:00 PM 11.9045 -87.4327 157° South  Level FlightAware Approximate
Tue 06:03:00 PM 11.7859 -87.3806 157° South  Level FlightAware Approximate
Tue 06:04:00 PM 11.6673 -87.3286 157° South  Level FlightAware Approximate
Tue 06:05:00 PM 11.5487 -87.2766 157° South  Level FlightAware Approximate
Tue 06:06:00 PM 11.4301 -87.2246 157° South  Level FlightAware Approximate
Tue 06:07:00 PM 11.3115 -87.1727 157° South  Level FlightAware Approximate
Tue 06:08:00 PM 11.1929 -87.1208 157° South  Level FlightAware Approximate
Tue 06:09:00 PM 11.0743 -87.0688 157° South  Level FlightAware Approximate
Tue 06:10:00 PM 10.9558 -87.0168 157° South  Level FlightAware Approximate
Tue 06:11:00 PM 10.8372 -86.9649 157° South  Level FlightAware Approximate
Tue 06:12:00 PM 10.7186 -86.9129 157° South  Level FlightAware Approximate
Tue 06:13:00 PM 10.6001 -86.8611 157° South  Level FlightAware Approximate
Tue 06:14:00 PM 10.4815 -86.8092 157° South  Level FlightAware Approximate
Tue 06:15:00 PM 10.3629 -86.7574 157° South  Level FlightAware Approximate
Tue 06:16:00 PM 10.2443 -86.7056 157° South  Level FlightAware Approximate
Tue 06:17:00 PM 10.1257 -86.6539 157° South  Level FlightAware Approximate
Tue 06:18:00 PM 10.0068 -86.6028 157° South  Level FlightAware Approximate
Tue 06:19:00 PM 9.8879 -86.5517 157° South  Level FlightAware Approximate
Tue 06:20:00 PM 9.7690 -86.5007 157° South  Level FlightAware Approximate
Tue 06:21:00 PM 9.6502 -86.4497 157° South  Level FlightAware Approximate
Tue 06:22:00 PM 9.5312 -86.3987 157° South  Level FlightAware Approximate
Tue 06:23:00 PM 9.4123 -86.3478 157° South  Level FlightAware Approximate
Tue 06:24:00 PM 9.2934 -86.2969 157° South  Level FlightAware Approximate
Tue 06:25:00 PM 9.1745 -86.2461 157° South  Level FlightAware Approximate
Tue 06:26:00 PM 9.0556 -86.1952 157° South  Level FlightAware Approximate
Tue 06:27:00 PM 8.9370 -86.1435 157° South  Level FlightAware Approximate
Tue 06:28:00 PM 8.8185 -86.0919 157° South  Level FlightAware Approximate
Tue 06:29:00 PM 8.6999 -86.0404 157° South  Level FlightAware Approximate
Tue 06:30:00 PM 8.5813 -85.9888 157° South  Level FlightAware Approximate
Tue 06:31:00 PM 8.4627 -85.9373 157° South  Level FlightAware Approximate
Tue 06:32:00 PM 8.3441 -85.8858 157° South  Level FlightAware Approximate
Tue 06:33:00 PM 8.2254 -85.8345 157° South  Level FlightAware Approximate
Tue 06:34:00 PM 8.1067 -85.7832 157° South  Level FlightAware Approximate
Tue 06:35:00 PM 7.9880 -85.7320 157° South  Level FlightAware Approximate
Tue 06:36:00 PM 7.8693 -85.6808 157° South  Level FlightAware Approximate
Tue 06:37:00 PM 7.7506 -85.6297 157° South  Level FlightAware Approximate
Tue 06:38:00 PM 7.6319 -85.5785 157° South  Level FlightAware Approximate
Tue 06:39:00 PM 7.5132 -85.5274 157° South  Level FlightAware Approximate
Tue 06:40:00 PM 7.3945 -85.4764 157° South  Level FlightAware Approximate
Tue 06:41:00 PM 7.2757 -85.4253 157° South  Level FlightAware Approximate
Tue 06:42:00 PM 7.1570 -85.3743 157° South  Level FlightAware Approximate
Tue 06:43:00 PM 7.0382 -85.3233 157° South  Level FlightAware Approximate
Tue 06:44:00 PM 6.9195 -85.2724 157° South  Level FlightAware Approximate
Tue 06:45:00 PM 6.8007 -85.2214 157° South  Level FlightAware Approximate
Tue 06:46:00 PM 6.6820 -85.1705 157° South  Level FlightAware Approximate
Tue 06:47:00 PM 6.5632 -85.1196 157° South  Level FlightAware Approximate
Tue 06:48:00 PM 6.4444 -85.0688 157° South  Level FlightAware Approximate
Tue 06:49:00 PM 6.3256 -85.0179 157° South  Level FlightAware Approximate
Tue 06:50:00 PM 6.2069 -84.9671 157° South  Level FlightAware Approximate
Tue 06:51:00 PM 6.0881 -84.9163 157° South  Level FlightAware Approximate
Tue 06:52:00 PM 5.9693 -84.8655 157° South  Level FlightAware Approximate
Tue 06:53:00 PM 5.8505 -84.8148 157° South  Level FlightAware Approximate
Tue 06:54:00 PM 5.7317 -84.7641 157° South  Level FlightAware Approximate
Tue 06:55:00 PM 5.6129 -84.7133 157° South  Level FlightAware Approximate
Tue 06:56:00 PM 5.4941 -84.6627 157° South  Level FlightAware Approximate
Tue 06:57:00 PM 5.3752 -84.6120 157° South  Level FlightAware Approximate
Tue 06:58:00 PM 5.2564 -84.5613 157° South  Level FlightAware Approximate
Tue 06:59:00 PM 5.1376 -84.5107 157° South  Level FlightAware Approximate
Tue 07:00:00 PM 5.0188 -84.4601 157° South  Level FlightAware Approximate
Tue 07:01:00 PM 4.8999 -84.4095 157° South  Level FlightAware Approximate
Tue 07:02:00 PM 4.7811 -84.3589 157° South  Level FlightAware Approximate
Tue 07:03:00 PM 4.6623 -84.3084 157° South  Level FlightAware Approximate
Tue 07:04:00 PM 4.5434 -84.2579 157° South  Level FlightAware Approximate
Tue 07:05:00 PM 4.4246 -84.2073 157° South  Level FlightAware Approximate
Tue 07:06:00 PM 4.3057 -84.1568 157° South  Level FlightAware Approximate
Tue 07:07:00 PM 4.1869 -84.1063 157° South  Level FlightAware Approximate
Tue 07:08:00 PM 4.0680 -84.0559 157° South  Level FlightAware Approximate
Tue 07:09:00 PM 3.9491 -84.0054 157° South  Level FlightAware Approximate
Tue 07:10:00 PM 3.8303 -83.9550 157° South  Level FlightAware Approximate
Tue 07:11:00 PM 3.7114 -83.9045 157° South  Level FlightAware Approximate
Tue 07:12:00 PM 3.5925 -83.8541 157° South  Level FlightAware Approximate
Tue 07:13:00 PM 3.4737 -83.8037 157° South  Level FlightAware Approximate
Tue 07:14:00 PM 3.3548 -83.7533 157° South  Level FlightAware Approximate
Tue 07:15:00 PM 3.2359 -83.7030 157° South  Level FlightAware Approximate
Tue 07:16:00 PM 3.1170 -83.6526 157° South  Level FlightAware Approximate
Tue 07:17:00 PM 2.9982 -83.6022 157° South  Level FlightAware Approximate
Tue 07:18:00 PM 2.8793 -83.5519 157° South  Level FlightAware Approximate
Tue 07:19:00 PM 2.7604 -83.5016 157° South  Level FlightAware Approximate
Tue 07:20:00 PM 2.6415 -83.4513 157° South  Level FlightAware Approximate
Tue 07:21:00 PM 2.5226 -83.4009 157° South  Level FlightAware Approximate
Tue 07:22:00 PM 2.4037 -83.3506 157° South  Level FlightAware Approximate
Tue 07:23:00 PM 2.2848 -83.3003 157° South  Level FlightAware Approximate
Tue 07:24:00 PM 2.1659 -83.2501 157° South  Level FlightAware Approximate
Tue 07:25:00 PM 2.0470 -83.1998 157° South  Level FlightAware Approximate
Tue 07:26:00 PM 1.9281 -83.1495 157° South  Level FlightAware Approximate
Tue 07:27:00 PM 1.8092 -83.0992 157° South  Level FlightAware Approximate
Tue 07:28:00 PM 1.6903 -83.0490 157° South  Level FlightAware Approximate
Tue 07:29:00 PM 1.5714 -82.9987 157° South  Level FlightAware Approximate
Tue 07:30:00 PM 1.4525 -82.9485 157° South  Level FlightAware Approximate
Tue 07:31:00 PM 1.3338 -82.8979 157° South  Level FlightAware Approximate
Tue 07:32:00 PM 1.2151 -82.8472 157° South  Level FlightAware Approximate
Tue 07:33:00 PM 1.0964 -82.7964 157° South  Level FlightAware Approximate
Tue 07:34:00 PM 0.9777 -82.7457 157° South  Level FlightAware Approximate
Tue 07:35:00 PM 0.8590 -82.6949 157° South  Level FlightAware Approximate
Tue 07:36:00 PM 0.7403 -82.6442 157° South  Level FlightAware Approximate
Tue 07:37:00 PM 0.6216 -82.5935 157° South  Level FlightAware Approximate
Tue 07:38:00 PM 0.5030 -82.5428 157° South  Level FlightAware Approximate
Tue 07:39:00 PM 0.3843 -82.4920 157° South  Level FlightAware Approximate
Tue 07:40:00 PM 0.2656 -82.4413 157° South  Level FlightAware Approximate
Tue 07:41:00 PM 0.1469 -82.3906 157° South  Level FlightAware Approximate
Tue 07:42:00 PM 0.0282 -82.3399 157° South  Level FlightAware Approximate
Tue 07:43:00 PM -0.0905 -82.2892 157° South  Level FlightAware Approximate
Tue 07:44:00 PM -0.2092 -82.2384 157° South  Level FlightAware Approximate
Tue 07:45:00 PM -0.3279 -82.1877 157° South  Level FlightAware Approximate
Tue 07:46:00 PM -0.4466 -82.1370 157° South  Level FlightAware Approximate
Tue 07:47:00 PM -0.5653 -82.0863 157° South  Level FlightAware Approximate
Tue 07:48:00 PM -0.6840 -82.0356 157° South  Level FlightAware Approximate
Tue 07:49:00 PM -0.8027 -81.9848 157° South  Level FlightAware Approximate
Tue 07:50:00 PM -0.9214 -81.9341 157° South  Level FlightAware Approximate
Tue 07:51:00 PM -1.0401 -81.8834 157° South  Level FlightAware Approximate
Tue 07:52:00 PM -1.1588 -81.8326 157° South  Level FlightAware Approximate
Tue 07:53:00 PM -1.2775 -81.7819 157° South  Level FlightAware Approximate
Tue 07:54:00 PM -1.3961 -81.7311 157° South  Level FlightAware Approximate
Tue 07:55:00 PM -1.5148 -81.6804 157° South  Level FlightAware Approximate
Tue 07:56:00 PM -1.6335 -81.6296 157° South  Level FlightAware Approximate
Tue 07:57:00 PM -1.7522 -81.5789 157° South  Level FlightAware Approximate
Tue 07:58:00 PM -1.8709 -81.5281 157° South  Level FlightAware Approximate
Tue 07:59:00 PM -1.9896 -81.4773 157° South  Level FlightAware Approximate
Tue 08:00:00 PM -2.1083 -81.4265 157° South  Level FlightAware Approximate
Tue 08:01:00 PM -2.2269 -81.3757 157° South  Level FlightAware Approximate
Tue 08:02:00 PM -2.3456 -81.3249 157° South  Level FlightAware Approximate
Tue 08:03:00 PM -2.4643 -81.2741 157° South  Level FlightAware Approximate
Tue 08:04:00 PM -2.5830 -81.2233 157° South  Level FlightAware Approximate
Tue 08:05:00 PM -2.7016 -81.1725 157° South  Level FlightAware Approximate
Tue 08:06:00 PM -2.8203 -81.1216 157° South  Level FlightAware Approximate
Tue 08:07:00 PM -2.9390 -81.0708 157° South  Level FlightAware Approximate
Tue 08:08:00 PM -3.0577 -81.0199 157° South  Level FlightAware Approximate
Tue 08:09:00 PM -3.1763 -80.9691 157° South  Level FlightAware Approximate
Tue 08:10:00 PM -3.2950 -80.9182 157° South  Level FlightAware Approximate
Tue 08:11:00 PM -3.4136 -80.8673 157° South  Level FlightAware Approximate
Tue 08:12:00 PM -3.5323 -80.8164 157° South  Level FlightAware Approximate
Tue 08:13:00 PM -3.6509 -80.7655 157° South  Level FlightAware Approximate
Tue 08:14:00 PM -3.7696 -80.7145 157° South  Level FlightAware Approximate
Tue 08:15:00 PM -3.8882 -80.6636 157° South  Level FlightAware Approximate
Tue 08:16:00 PM -4.0069 -80.6126 157° South  Level FlightAware Approximate
Tue 08:17:00 PM -4.1255 -80.5616 157° South  Level FlightAware Approximate
Tue 08:18:00 PM -4.2442 -80.5107 157° South  Level FlightAware Approximate
Tue 08:19:00 PM -4.3628 -80.4596 157° South  Level FlightAware Approximate
Tue 08:20:00 PM -4.4814 -80.4086 157° South  Level FlightAware Approximate
Tue 08:21:00 PM -4.6000 -80.3576 157° South  Level FlightAware Approximate
Tue 08:22:00 PM -4.7187 -80.3065 157° South  Level FlightAware Approximate
Tue 08:23:00 PM -4.8373 -80.2554 157° South  Level FlightAware Approximate
Tue 08:24:00 PM -4.9559 -80.2044 157° South  Level FlightAware Approximate
Tue 08:25:00 PM -5.0745 -80.1533 157° South  Level FlightAware Approximate
Tue 08:26:00 PM -5.1931 -80.1021 157° South  Level FlightAware Approximate
Tue 08:27:00 PM -5.3117 -80.0510 157° South  Level FlightAware Approximate
Tue 08:28:00 PM -5.4303 -79.9998 157° South  Level FlightAware Approximate
Tue 08:29:00 PM -5.5489 -79.9486 157° South  Level FlightAware Approximate
Tue 08:30:00 PM -5.6675 -79.8974 157° South  Level FlightAware Approximate
Tue 08:31:00 PM -5.7861 -79.8462 157° South  Level FlightAware Approximate
Tue 08:32:00 PM -5.9047 -79.7949 157° South  Level FlightAware Approximate
Tue 08:33:00 PM -6.0233 -79.7437 157° South  Level FlightAware Approximate
Tue 08:34:00 PM -6.1418 -79.6924 157° South  Level FlightAware Approximate
Tue 08:35:00 PM -6.2604 -79.6410 157° South  Level FlightAware Approximate
Tue 08:36:00 PM -6.3790 -79.5897 157° South  Level FlightAware Approximate
Tue 08:37:00 PM -6.4975 -79.5383 157° South  Level FlightAware Approximate
Tue 08:38:00 PM -6.6161 -79.4869 157° South  Level FlightAware Approximate
Tue 08:39:00 PM -6.7346 -79.4355 157° South  Level FlightAware Approximate
Tue 08:40:00 PM -6.8532 -79.3841 157° South  Level FlightAware Approximate
Tue 08:41:00 PM -6.9717 -79.3326 157° South  Level FlightAware Approximate
Tue 08:42:00 PM -7.0902 -79.2811 157° South  Level FlightAware Approximate
Tue 08:43:00 PM -7.2088 -79.2296 157° South  Level FlightAware Approximate
Tue 08:44:00 PM -7.3273 -79.1781 157° South  Level FlightAware Approximate
Tue 08:45:00 PM -7.4458 -79.1265 157° South  Level FlightAware Approximate
Tue 08:46:00 PM -7.5643 -79.0749 157° South  Level FlightAware Approximate
Tue 08:47:00 PM -7.6828 -79.0233 157° South  Level FlightAware Approximate
Tue 08:48:00 PM -7.8013 -78.9716 157° South  Level FlightAware Approximate
Tue 08:49:00 PM -7.9198 -78.9199 157° South  Level FlightAware Approximate
Tue 08:50:00 PM -8.0383 -78.8682 157° South  Level FlightAware Approximate
Tue 08:51:00 PM -8.1567 -78.8165 157° South  Level FlightAware Approximate
Tue 08:52:00 PM -8.2752 -78.7647 157° South  Level FlightAware Approximate
Tue 08:53:00 PM -8.3937 -78.7129 157° South  Level FlightAware Approximate
Tue 08:54:00 PM -8.5121 -78.6610 157° South  Level FlightAware Approximate
Tue 08:55:00 PM -8.6306 -78.6092 157° South  Level FlightAware Approximate
Tue 08:56:00 PM -8.7490 -78.5573 157° South  Level FlightAware Approximate
Tue 08:57:00 PM -8.8675 -78.5053 157° South  Level FlightAware Approximate
Tue 08:58:00 PM -8.9859 -78.4533 157° South  Level FlightAware Approximate
Tue 08:59:00 PM -9.1043 -78.4014 157° South  Level FlightAware Approximate
Tue 09:00:00 PM -9.2227 -78.3493 157° South  Level FlightAware Approximate
Tue 09:01:00 PM -9.3411 -78.2972 157° South  Level FlightAware Approximate
Tue 09:02:00 PM -9.4595 -78.2451 157° South  Level FlightAware Approximate
Tue 09:03:00 PM -9.5779 -78.1930 157° South  Level FlightAware Approximate
Tue 09:04:00 PM -9.6963 -78.1408 157° South  Level FlightAware Approximate
Tue 09:05:00 PM -9.8147 -78.0886 157° South  Level FlightAware Approximate
Tue 09:06:00 PM -9.9331 -78.0363 156° South  Level FlightAware Approximate
Tue 09:07:00 PM -10.0514 -77.9840 156° South  Level FlightAware Approximate
Tue 09:08:00 PM -10.1698 -77.9317 156° South  Level FlightAware Approximate
Tue 09:09:00 PM -10.2881 -77.8793 156° South  Level FlightAware Approximate
Tue 09:10:00 PM -10.4064 -77.8269 156° South  Level FlightAware Approximate
Tue 09:11:00 PM -10.5248 -77.7745 156° South  Level FlightAware Approximate
Tue 09:12:00 PM -10.6431 -77.7220 156° South  Level FlightAware Approximate
Tue 09:13:00 PM -10.7614 -77.6694 156° South  Level FlightAware Approximate
Tue 09:14:00 PM -10.8797 -77.6169 156° South  Level FlightAware Approximate
Tue 09:15:00 PM -10.9980 -77.5643 156° South  Level FlightAware Approximate
Tue 09:16:00 PM -11.1163 -77.5116 156° South  Level FlightAware Approximate
Tue 09:17:00 PM -11.2345 -77.4589 156° South  Level FlightAware Approximate
Tue 09:18:00 PM -11.3528 -77.4062 156° South  Level FlightAware Approximate
Tue 09:19:00 PM -11.4710 -77.3534 156° South  Level FlightAware Approximate
Tue 09:20:00 PM -11.5893 -77.3006 156° South  Level FlightAware Approximate
Tue 09:21:00 PM -11.7075 -77.2477 156° South  Level FlightAware Approximate
Tue 09:22:00 PM -11.8257 -77.1948 156° South  Level FlightAware Approximate
Tue 09:23:00 PM -11.9439 -77.1418 156° South  Level FlightAware Approximate
Tue 09:24:00 PM -12.0551 -77.0761 144° Southeast  Level FlightAware Approximate
Tue 09:25:00 PM -12.1598 -76.9990 144° Southeast  Level FlightAware Approximate
Tue 09:26:00 PM -12.2646 -76.9218 144° Southeast  Level FlightAware Approximate
Tue 09:27:00 PM -12.3693 -76.8445 144° Southeast  Level FlightAware Approximate
Tue 09:28:00 PM -12.4740 -76.7672 144° Southeast  Level FlightAware Approximate
Tue 09:29:00 PM -12.5786 -76.6898 144° Southeast  Level FlightAware Approximate
Tue 09:30:00 PM -12.6833 -76.6124 144° Southeast  Level FlightAware Approximate
Tue 09:31:00 PM -12.7879 -76.5349 144° Southeast  Level FlightAware Approximate
Tue 09:32:00 PM -12.8925 -76.4573 144° Southeast  Level FlightAware Approximate
Tue 09:33:00 PM -12.9970 -76.3796 144° Southeast  Level FlightAware Approximate
Tue 09:34:00 PM -13.1016 -76.3019 144° Southeast  Level FlightAware Approximate
Tue 09:35:00 PM -13.2061 -76.2242 144° Southeast  Level FlightAware Approximate
Tue 09:36:00 PM -13.3106 -76.1463 144° Southeast  Level FlightAware Approximate
Tue 09:37:00 PM -13.4151 -76.0684 144° Southeast  Level FlightAware Approximate
Tue 09:38:00 PM -13.5195 -75.9904 144° Southeast  Level FlightAware Approximate
Tue 09:39:00 PM -13.6240 -75.9124 144° Southeast  Level FlightAware Approximate
Tue 09:40:00 PM -13.7284 -75.8343 144° Southeast  Level FlightAware Approximate
Tue 09:41:00 PM -13.8328 -75.7561 144° Southeast  Level FlightAware Approximate
Tue 09:42:00 PM -13.9371 -75.6778 144° Southeast  Level FlightAware Approximate
Tue 09:43:00 PM -14.0414 -75.5995 144° Southeast  Level FlightAware Approximate
Tue 09:44:00 PM -14.1458 -75.5211 144° Southeast  Level FlightAware Approximate
Tue 09:45:00 PM -14.2500 -75.4427 144° Southeast  Level FlightAware Approximate
Tue 09:46:00 PM -14.3543 -75.3641 144° Southeast  Level FlightAware Approximate
Tue 09:47:00 PM -14.4585 -75.2855 144° Southeast  Level FlightAware Approximate
Tue 09:48:00 PM -14.5627 -75.2068 144° Southeast  Level FlightAware Approximate
Tue 09:49:00 PM -14.6669 -75.1281 144° Southeast  Level FlightAware Approximate
Tue 09:50:00 PM -14.7711 -75.0492 144° Southeast  Level FlightAware Approximate
Tue 09:51:00 PM -14.8752 -74.9703 144° Southeast  Level FlightAware Approximate
Tue 09:52:00 PM -14.9793 -74.8913 144° Southeast  Level FlightAware Approximate
Tue 09:53:00 PM -15.0833 -74.8123 144° Southeast  Level FlightAware Approximate
Tue 09:54:00 PM -15.1874 -74.7331 144° Southeast  Level FlightAware Approximate
Tue 09:55:00 PM -15.2914 -74.6539 144° Southeast  Level FlightAware Approximate
Tue 09:56:00 PM -15.3954 -74.5746 144° Southeast  Level FlightAware Approximate
Tue 09:57:00 PM -15.4993 -74.4952 144° Southeast  Level FlightAware Approximate
Tue 09:58:00 PM -15.6033 -74.4158 144° Southeast  Level FlightAware Approximate
Tue 09:59:00 PM -15.7072 -74.3362 144° Southeast  Level FlightAware Approximate
Tue 10:00:00 PM -15.8110 -74.2566 144° Southeast  Level FlightAware Approximate
Tue 10:01:00 PM -15.9149 -74.1769 144° Southeast  Level FlightAware Approximate
Tue 10:02:00 PM -16.0187 -74.0971 144° Southeast  Level FlightAware Approximate
Tue 10:03:00 PM -16.1225 -74.0173 144° Southeast  Level FlightAware Approximate
Tue 10:04:00 PM -16.2262 -73.9373 144° Southeast  Level FlightAware Approximate
Tue 10:05:00 PM -16.3299 -73.8573 143° Southeast  Level FlightAware Approximate
Tue 10:06:00 PM -16.4336 -73.7772 143° Southeast  Level FlightAware Approximate
Tue 10:07:00 PM -16.5373 -73.6969 143° Southeast  Level FlightAware Approximate
Tue 10:08:00 PM -16.6409 -73.6167 143° Southeast  Level FlightAware Approximate
Tue 10:09:00 PM -16.7445 -73.5363 143° Southeast  Level FlightAware Approximate
Tue 10:10:00 PM -16.8481 -73.4558 143° Southeast  Level FlightAware Approximate
Tue 10:11:00 PM -16.9516 -73.3753 143° Southeast  Level FlightAware Approximate
Tue 10:12:00 PM -17.0551 -73.2946 143° Southeast  Level FlightAware Approximate
Tue 10:13:00 PM -17.1586 -73.2139 143° Southeast  Level FlightAware Approximate
Tue 10:14:00 PM -17.2621 -73.1331 143° Southeast  Level FlightAware Approximate
Tue 10:15:00 PM -17.3655 -73.0521 143° Southeast  Level FlightAware Approximate
Tue 10:16:00 PM -17.4688 -72.9712 143° Southeast  Level FlightAware Approximate
Tue 10:17:00 PM -17.5722 -72.8901 143° Southeast  Level FlightAware Approximate
Tue 10:18:00 PM -17.6755 -72.8089 143° Southeast  Level FlightAware Approximate
Tue 10:19:00 PM -17.7788 -72.7276 143° Southeast  Level FlightAware Approximate
Tue 10:20:00 PM -17.8820 -72.6462 143° Southeast  Level FlightAware Approximate
Tue 10:21:00 PM -17.9853 -72.5647 143° Southeast  Level FlightAware Approximate
Tue 10:22:00 PM -18.0884 -72.4832 143° Southeast  Level FlightAware Approximate
Tue 10:23:00 PM -18.1916 -72.4015 143° Southeast  Level FlightAware Approximate
Tue 10:24:00 PM -18.2947 -72.3197 143° Southeast  Level FlightAware Approximate
Tue 10:25:00 PM -18.3978 -72.2379 143° Southeast  Level FlightAware Approximate
Tue 10:26:00 PM -18.5008 -72.1559 143° Southeast  Level FlightAware Approximate
Tue 10:27:00 PM -18.6038 -72.0739 143° Southeast  Level FlightAware Approximate
Tue 10:28:00 PM -18.7068 -71.9917 143° Southeast  Level FlightAware Approximate
Tue 10:29:00 PM -18.8097 -71.9095 143° Southeast  Level FlightAware Approximate
Tue 10:30:00 PM -18.9126 -71.8271 143° Southeast  Level FlightAware Approximate
Tue 10:31:00 PM -19.0154 -71.7447 143° Southeast  Level FlightAware Approximate
Tue 10:32:00 PM -19.1183 -71.6621 143° Southeast  Level FlightAware Approximate
Tue 10:33:00 PM -19.2211 -71.5795 143° Southeast  Level FlightAware Approximate
Tue 10:34:00 PM -19.3238 -71.4967 143° Southeast  Level FlightAware Approximate
Tue 10:35:00 PM -19.4265 -71.4138 143° Southeast  Level FlightAware Approximate
Tue 10:36:00 PM -19.5292 -71.3309 143° Southeast  Level FlightAware Approximate
Tue 10:37:00 PM -19.6318 -71.2478 143° Southeast  Level FlightAware Approximate
Tue 10:38:00 PM -19.7344 -71.1646 143° Southeast  Level FlightAware Approximate
Tue 10:39:00 PM -19.8370 -71.0813 143° Southeast  Level FlightAware Approximate
Tue 10:40:00 PM -19.9395 -70.9979 143° Southeast  Level FlightAware Approximate
Tue 10:41:00 PM -20.0420 -70.9144 143° Southeast  Level FlightAware Approximate
Tue 10:42:00 PM -20.1444 -70.8308 143° Southeast  Level FlightAware Approximate
Tue 10:43:00 PM -20.2468 -70.7470 143° Southeast  Level FlightAware Approximate
Tue 10:44:00 PM -20.3492 -70.6632 142° Southeast  Level FlightAware Approximate
Tue 10:45:00 PM -20.4515 -70.5793 142° Southeast  Level FlightAware Approximate
Tue 10:46:00 PM -20.5538 -70.4952 142° Southeast  Level FlightAware Approximate
Tue 10:47:00 PM -20.6560 -70.4110 142° Southeast  Level FlightAware Approximate
Tue 10:48:00 PM -20.7582 -70.3268 142° Southeast  Level FlightAware Approximate
Tue 10:49:00 PM -20.8604 -70.2423 142° Southeast  Level FlightAware Approximate
Tue 10:50:00 PM -20.9625 -70.1578 142° Southeast  Level FlightAware Approximate
Tue 10:51:00 PM -21.0646 -70.0732 142° Southeast  Level FlightAware Approximate
Tue 10:52:00 PM -21.1666 -69.9885 142° Southeast  Level FlightAware Approximate
Tue 10:53:00 PM -21.2686 -69.9036 142° Southeast  Level FlightAware Approximate
Tue 10:54:00 PM -21.3706 -69.8186 142° Southeast  Level FlightAware Approximate
Tue 10:55:00 PM -21.4725 -69.7335 142° Southeast  Level FlightAware Approximate
Tue 10:56:00 PM -21.5744 -69.6483 142° Southeast  Level FlightAware Approximate
Tue 10:57:00 PM -21.6762 -69.5630 142° Southeast  Level FlightAware Approximate
Tue 10:58:00 PM -21.7780 -69.4775 142° Southeast  Level FlightAware Approximate
Tue 10:59:00 PM -21.8797 -69.3919 142° Southeast  Level FlightAware Approximate
Tue 11:00:00 PM -21.9814 -69.3062 142° Southeast  Level FlightAware Approximate
Tue 11:01:00 PM -22.0830 -69.2204 142° Southeast  Level FlightAware Approximate
Tue 11:02:00 PM -22.1846 -69.1345 142° Southeast  Level FlightAware Approximate
Tue 11:03:00 PM -22.2862 -69.0484 142° Southeast  Level FlightAware Approximate
Tue 11:04:00 PM -22.3877 -68.9622 142° Southeast  Level FlightAware Approximate
Tue 11:05:00 PM -22.4892 -68.8759 142° Southeast  Level FlightAware Approximate
Tue 11:06:00 PM -22.5564 -68.7577 119° Southeast  Level FlightAware Approximate
Tue 11:07:00 PM -22.6195 -68.6357 119° Southeast  Level FlightAware Approximate
Tue 11:08:00 PM -22.6824 -68.5136 119° Southeast  Level FlightAware Approximate
Tue 11:09:00 PM -22.7453 -68.3914 119° Southeast  Level FlightAware Approximate
Tue 11:10:00 PM -22.8081 -68.2691 119° Southeast  Level FlightAware Approximate
Tue 11:11:00 PM -22.8708 -68.1467 119° Southeast  Level FlightAware Approximate
Tue 11:12:00 PM -22.9333 -68.0241 119° Southeast  Level FlightAware Approximate
Tue 11:13:00 PM -22.9958 -67.9014 119° Southeast  Level FlightAware Approximate
Tue 11:14:00 PM -23.0582 -67.7787 119° Southeast  Level FlightAware Approximate
Tue 11:15:00 PM -23.1205 -67.6558 119° Southeast  Level FlightAware Approximate
Tue 11:16:00 PM -23.1827 -67.5328 119° Southeast  Level FlightAware Approximate
Tue 11:17:00 PM -23.2448 -67.4096 119° Southeast  Level FlightAware Approximate
Tue 11:18:00 PM -23.3068 -67.2864 119° Southeast  Level FlightAware Approximate
Tue 11:19:00 PM -23.3687 -67.1630 119° Southeast  Level FlightAware Approximate
Tue 11:20:00 PM -23.4306 -67.0396 119° Southeast  Level FlightAware Approximate
Tue 11:21:00 PM -23.4923 -66.9160 119° Southeast  Level FlightAware Approximate
Tue 11:22:00 PM -23.5539 -66.7923 119° Southeast  Level FlightAware Approximate
Tue 11:23:00 PM -23.6157 -66.6687 119° Southeast  Level FlightAware Approximate
Tue 11:24:00 PM -23.6775 -66.5450 119° Southeast  Level FlightAware Approximate
Tue 11:25:00 PM -23.7387 -66.4208 115° Southeast  Level FlightAware Approximate
Tue 11:26:00 PM -23.7948 -66.2939 119° Southeast  Level FlightAware Approximate
Tue 11:27:00 PM -23.8567 -66.1700 119° Southeast  Level FlightAware Approximate
Tue 11:28:00 PM -23.9233 -66.0496 117° Southeast  Level FlightAware Approximate
Tue 11:29:00 PM -23.9815 -65.9235 117° Southeast  Level FlightAware Approximate
Tue 11:30:00 PM -24.0424 -65.7990 119° Southeast  Level FlightAware Approximate
Tue 11:31:00 PM -24.1045 -65.6751 119° Southeast  Level FlightAware Approximate
Tue 11:32:00 PM -24.1666 -65.5510 119° Southeast  Level FlightAware Approximate
Tue 11:33:00 PM -24.2286 -65.4269 119° Southeast  Level FlightAware Approximate
Tue 11:34:00 PM -24.2904 -65.3026 119° Southeast  Level FlightAware Approximate
Tue 11:35:00 PM -24.3438 -65.1738 114° Southeast  Level FlightAware Approximate
Tue 11:36:00 PM -24.4117 -65.0784 222° Southwest  Level FlightAware Approximate
Tue 11:37:00 PM -24.5072 -65.1738 222° Southwest  Level FlightAware Approximate
Tue 11:38:00 PM -24.6076 -65.2629 218° Southwest  Level FlightAware Approximate
Tue 11:39:00 PM -24.7119 -65.3464 214° Southwest  Level FlightAware Approximate
Tue 11:40:00 PM -24.8037 -65.4370 222° Southwest  Level FlightAware Approximate
Tue 11:41:00 PM -24.8500 -65.4833 222° Southwest  Level FlightAware Approximate
Tue 11:42:00 PM -24.8559 -65.4862 222° Southwest  Level Estimated
Tue 11:43:00 PM -24.8500 -65.4833 222° Southwest  Level FlightAware Approximate
Tue 11:44:00 PM -24.8559 -65.4862 222° Southwest  Level Estimated
Tue 11:45:00 PM -24.8500 -65.4833 222° Southwest  Level FlightAware Approximate
Tue 11:46:00 PM -24.8559 -65.4862 222° Southwest  Level Estimated
Tue 11:47:00 PM -24.8500 -65.4833 222° Southwest  Level FlightAware Approximate
Tue 11:48:00 PM -24.8559 -65.4862 222° Southwest  Level Estimated
Tue 11:49:00 PM -24.8500 -65.4833 222° Southwest  Level FlightAware Approximate
Tue 11:50:00 PM -24.8559 -65.4862 222° Southwest  Level Estimated
Tue 11:51:00 PM -24.8500 -65.4833 222° Southwest  Level FlightAware Approximate

Login

Don't have an account? Register now (free) for customized features, flight alerts, and more!